createdAt,value
2019-03-31T00:00:37.476Z,23.67
2019-03-31T00:01:29.085Z,24.02
2019-03-31T00:02:17.219Z,24.27
2019-03-31T00:03:04.383Z,23.87
2019-03-31T00:03:51.215Z,23.57
2019-03-31T00:04:37.706Z,24.77
2019-03-31T00:05:24.103Z,25.75
2019-03-31T00:06:10.562Z,24.70
2019-03-31T00:06:57.020Z,24.67
2019-03-31T00:07:43.359Z,24.92
2019-03-31T00:08:29.855Z,23.70
2019-03-31T00:09:16.753Z,23.35
2019-03-31T00:10:03.731Z,23.98
2019-03-31T00:10:50.160Z,24.65
2019-03-31T00:11:36.549Z,26.75
2019-03-31T00:12:23.060Z,25.12
2019-03-31T00:13:09.668Z,24.67
2019-03-31T00:13:56.293Z,23.70
2019-03-31T00:14:44.940Z,25.02
2019-03-31T00:15:31.613Z,25.30
2019-03-31T00:16:18.508Z,23.18
2019-03-31T00:17:05.116Z,23.65
2019-03-31T00:17:52.001Z,23.73
2019-03-31T00:18:38.515Z,24.25
2019-03-31T00:19:25.016Z,26.57
2019-03-31T00:20:11.923Z,22.85
2019-03-31T00:20:58.476Z,24.20
2019-03-31T00:21:45.365Z,24.40
2019-03-31T00:22:31.886Z,25.20
2019-03-31T00:23:18.411Z,24.47
2019-03-31T00:24:04.851Z,23.75
2019-03-31T00:24:53.424Z,24.20
2019-03-31T00:25:46.636Z,22.05
2019-03-31T00:26:33.362Z,23.55
2019-03-31T00:27:19.986Z,25.00
2019-03-31T00:28:06.671Z,23.42
2019-03-31T00:28:53.826Z,25.55
2019-03-31T00:29:40.467Z,24.50
2019-03-31T00:30:27.097Z,25.62
2019-03-31T00:31:22.000Z,26.85
2019-03-31T00:32:02.426Z,23.10
2019-03-31T00:32:48.967Z,23.40
2019-03-31T00:33:35.516Z,25.02
2019-03-31T00:34:22.230Z,25.05
2019-03-31T00:35:09.462Z,25.88
2019-03-31T00:35:56.136Z,25.05
2019-03-31T00:36:43.272Z,22.55
2019-03-31T00:37:29.794Z,25.72
2019-03-31T00:38:16.467Z,24.57
2019-03-31T00:39:05.260Z,24.47
2019-03-31T00:39:52.425Z,23.00
2019-03-31T00:40:39.307Z,24.45
2019-03-31T00:41:25.759Z,23.95
2019-03-31T00:42:12.254Z,22.32
2019-03-31T00:42:59.395Z,24.50
2019-03-31T00:43:45.987Z,27.30
2019-03-31T00:44:32.459Z,23.50
2019-03-31T00:45:18.915Z,24.55
2019-03-31T00:46:05.602Z,25.23
2019-03-31T00:46:52.334Z,24.02
2019-03-31T00:47:39.329Z,26.00
2019-03-31T00:48:26.021Z,28.35
2019-03-31T00:49:12.639Z,24.20
2019-03-31T00:49:59.485Z,24.40
2019-03-31T00:50:46.539Z,24.90
2019-03-31T00:51:33.178Z,24.30
2019-03-31T00:52:19.796Z,23.77
2019-03-31T00:53:06.446Z,24.37
2019-03-31T00:53:53.685Z,26.37
2019-03-31T00:54:40.384Z,27.37
2019-03-31T00:55:27.016Z,23.80
2019-03-31T00:56:14.204Z,26.02
2019-03-31T00:57:00.888Z,24.87
2019-03-31T00:57:47.775Z,24.55
2019-03-31T00:58:34.724Z,25.97
2019-03-31T00:59:21.984Z,28.07
2019-03-31T01:00:11.139Z,26.85
2019-03-31T01:01:18.660Z,24.50
2019-03-31T01:02:09.498Z,26.05
2019-03-31T01:02:55.856Z,26.30
2019-03-31T01:03:42.286Z,24.57
2019-03-31T01:04:31.281Z,25.72
2019-03-31T01:05:17.561Z,24.05
2019-03-31T01:06:05.338Z,24.00
2019-03-31T01:06:53.587Z,23.52
2019-03-31T01:07:40.530Z,25.95
2019-03-31T01:08:31.039Z,23.32
2019-03-31T01:09:23.564Z,25.12
2019-03-31T01:10:10.544Z,24.12
2019-03-31T01:10:57.775Z,29.42
2019-03-31T01:11:44.592Z,24.50
2019-03-31T01:12:31.601Z,24.75
2019-03-31T01:13:18.311Z,23.80
2019-03-31T01:14:04.740Z,25.45
2019-03-31T01:14:51.647Z,27.77
2019-03-31T01:15:40.197Z,25.48
2019-03-31T01:16:28.847Z,23.18
2019-03-31T01:18:09.879Z,24.63
2019-03-31T01:18:56.487Z,23.27
2019-03-31T01:19:43.127Z,26.37
2019-03-31T01:20:30.010Z,27.25
2019-03-31T01:21:17.420Z,24.67
2019-03-31T01:22:04.435Z,23.35
2019-03-31T01:22:51.268Z,23.85
2019-03-31T01:23:37.750Z,24.20
2019-03-31T01:24:24.277Z,24.80
2019-03-31T01:25:12.925Z,24.45
2019-03-31T01:26:00.595Z,23.67
2019-03-31T01:26:47.588Z,23.52
2019-03-31T01:27:34.120Z,22.75
2019-03-31T01:28:21.117Z,26.15
2019-03-31T01:29:08.112Z,24.18
2019-03-31T01:29:54.866Z,26.37
2019-03-31T01:30:41.344Z,23.87
2019-03-31T01:31:28.622Z,26.50
2019-03-31T01:32:15.766Z,24.52
2019-03-31T01:33:02.148Z,25.82
2019-03-31T01:33:48.987Z,25.32
2019-03-31T01:34:35.398Z,24.65
2019-03-31T01:35:21.982Z,24.27
2019-03-31T01:36:08.899Z,28.55
2019-03-31T01:36:55.279Z,25.95
2019-03-31T01:37:41.923Z,23.98
2019-03-31T01:38:28.771Z,26.07
2019-03-31T01:39:15.310Z,26.15
2019-03-31T01:40:01.728Z,25.97
2019-03-31T01:40:48.998Z,26.10
2019-03-31T01:41:35.751Z,26.15
2019-03-31T01:42:22.651Z,25.57
2019-03-31T01:43:09.280Z,26.57
2019-03-31T01:43:55.712Z,25.20
2019-03-31T01:44:42.133Z,25.65
2019-03-31T01:45:28.959Z,24.60
2019-03-31T01:46:16.761Z,24.80
2019-03-31T01:47:03.620Z,25.75
2019-03-31T01:47:50.596Z,26.40
2019-03-31T01:48:37.084Z,25.57
2019-03-31T01:49:23.700Z,27.15
2019-03-31T01:50:13.538Z,25.77
2019-03-31T01:51:00.254Z,25.00
2019-03-31T01:51:46.745Z,26.17
2019-03-31T01:52:33.205Z,25.32
2019-03-31T01:53:19.732Z,26.77
2019-03-31T01:54:06.392Z,26.25
2019-03-31T01:54:53.244Z,26.73
2019-03-31T01:55:39.798Z,26.10
2019-03-31T01:56:26.644Z,25.10
2019-03-31T01:57:13.832Z,27.40
2019-03-31T01:58:00.752Z,27.45
2019-03-31T01:58:47.112Z,25.60
2019-03-31T01:59:33.605Z,26.97
2019-03-31T02:00:51.695Z,26.97
2019-03-31T02:01:41.836Z,25.35
2019-03-31T02:02:29.324Z,24.92
2019-03-31T02:03:16.283Z,26.77
2019-03-31T02:04:03.127Z,25.75
2019-03-31T02:04:49.820Z,24.07
2019-03-31T02:05:38.427Z,24.80
2019-03-31T02:06:25.293Z,26.45
2019-03-31T02:07:11.678Z,26.05
2019-03-31T02:07:58.193Z,25.68
2019-03-31T02:08:45.015Z,28.00
2019-03-31T02:09:31.881Z,30.05
2019-03-31T02:10:18.730Z,25.32
2019-03-31T02:11:05.581Z,27.75
2019-03-31T02:11:52.480Z,25.17
2019-03-31T02:12:38.955Z,27.42
2019-03-31T02:13:25.583Z,26.95
2019-03-31T02:14:12.427Z,27.17
2019-03-31T02:14:59.410Z,26.80
2019-03-31T02:15:46.322Z,27.22
2019-03-31T02:16:32.678Z,28.60
2019-03-31T02:17:19.909Z,29.37
2019-03-31T02:18:06.687Z,28.57
2019-03-31T02:18:53.171Z,27.67
2019-03-31T02:19:39.725Z,26.50
2019-03-31T02:20:26.462Z,29.32
2019-03-31T02:21:12.823Z,27.62
2019-03-31T02:21:59.368Z,27.67
2019-03-31T02:22:46.266Z,26.85
2019-03-31T02:23:32.740Z,26.80
2019-03-31T02:24:19.338Z,28.80
2019-03-31T02:25:06.191Z,31.48
2019-03-31T02:25:52.772Z,27.80
2019-03-31T02:26:39.288Z,27.58
2019-03-31T02:27:25.958Z,29.80
2019-03-31T02:28:12.769Z,29.82
2019-03-31T02:28:59.390Z,32.98
2019-03-31T02:29:46.394Z,34.13
2019-03-31T02:30:32.903Z,32.53
2019-03-31T02:31:20.911Z,31.27
2019-03-31T02:32:22.651Z,31.60
2019-03-31T02:32:55.908Z,29.92
2019-03-31T02:33:42.382Z,30.05
2019-03-31T02:34:28.915Z,34.83
2019-03-31T02:35:15.968Z,31.10
2019-03-31T02:36:02.622Z,35.90
2019-03-31T02:36:49.099Z,32.73
2019-03-31T02:37:35.666Z,36.65
2019-03-31T02:38:22.759Z,36.58
2019-03-31T02:39:09.246Z,44.48
2019-03-31T02:39:55.747Z,36.42
2019-03-31T02:40:42.220Z,31.17
2019-03-31T02:41:28.757Z,36.03
2019-03-31T02:42:15.273Z,32.67
2019-03-31T02:43:02.425Z,39.05
2019-03-31T02:43:49.450Z,38.80
2019-03-31T02:44:35.974Z,38.50
2019-03-31T02:45:22.552Z,37.67
2019-03-31T02:46:09.031Z,36.03
2019-03-31T02:46:55.531Z,33.90
2019-03-31T02:47:42.059Z,35.83
2019-03-31T02:48:28.654Z,39.60
2019-03-31T02:49:15.907Z,40.17
2019-03-31T02:50:02.678Z,38.05
2019-03-31T02:50:50.749Z,41.92
2019-03-31T02:51:37.570Z,39.92
2019-03-31T02:52:24.081Z,45.50
2019-03-31T02:53:10.616Z,43.80
2019-03-31T02:53:57.228Z,39.83
2019-03-31T02:54:44.331Z,39.38
2019-03-31T02:55:31.550Z,36.85
2019-03-31T02:56:18.662Z,40.03
2019-03-31T02:57:06.515Z,38.23
2019-03-31T02:57:53.855Z,42.20
2019-03-31T02:58:40.396Z,40.73
2019-03-31T02:59:30.587Z,40.65
2019-03-31T03:00:17.172Z,39.08
2019-03-31T03:01:04.064Z,42.20
2019-03-31T03:01:51.456Z,40.28
2019-03-31T03:02:41.925Z,39.35
2019-03-31T03:03:28.749Z,41.37
2019-03-31T03:04:17.636Z,39.27
2019-03-31T03:05:18.947Z,44.03
2019-03-31T03:05:55.444Z,41.28
2019-03-31T03:06:42.860Z,39.65
2019-03-31T03:07:29.524Z,40.75
2019-03-31T03:08:18.288Z,40.08
2019-03-31T03:09:06.250Z,36.70
2019-03-31T03:09:55.332Z,39.50
2019-03-31T03:10:43.218Z,41.85
2019-03-31T03:11:31.328Z,39.80
2019-03-31T03:12:19.341Z,43.95
2019-03-31T03:13:07.948Z,40.20
2019-03-31T03:13:58.077Z,40.25
2019-03-31T03:14:48.689Z,42.60
2019-03-31T03:15:44.703Z,44.00
2019-03-31T03:16:31.626Z,41.73
2019-03-31T03:17:17.913Z,48.15
2019-03-31T03:18:04.804Z,41.55
2019-03-31T03:18:51.853Z,39.20
2019-03-31T03:19:38.579Z,41.65
2019-03-31T03:20:25.115Z,38.20
2019-03-31T03:21:11.986Z,38.30
2019-03-31T03:21:58.422Z,43.52
2019-03-31T03:22:44.900Z,39.42
2019-03-31T03:23:31.334Z,40.67
2019-03-31T03:24:17.795Z,45.70
2019-03-31T03:25:04.920Z,42.20
2019-03-31T03:25:56.338Z,42.95
2019-03-31T03:26:39.997Z,41.42
2019-03-31T03:27:26.386Z,49.03
2019-03-31T03:28:12.880Z,47.13
2019-03-31T03:28:59.635Z,44.03
2019-03-31T03:29:46.476Z,41.35
2019-03-31T03:30:33.771Z,46.65
2019-03-31T03:31:20.713Z,43.08
2019-03-31T03:32:07.419Z,46.25
2019-03-31T03:33:13.544Z,44.77
2019-03-31T03:33:42.862Z,43.65
2019-03-31T03:34:29.842Z,44.70
2019-03-31T03:35:16.837Z,43.52
2019-03-31T03:36:03.772Z,46.42
2019-03-31T03:36:50.814Z,43.95
2019-03-31T03:37:37.652Z,47.80
2019-03-31T03:38:24.529Z,50.05
2019-03-31T03:39:11.465Z,44.60
2019-03-31T03:39:58.439Z,54.40
2019-03-31T03:40:45.043Z,45.45
2019-03-31T03:41:31.728Z,46.95
2019-03-31T03:42:18.139Z,48.00
2019-03-31T03:43:04.709Z,48.78
2019-03-31T03:43:55.611Z,46.18
2019-03-31T03:44:39.920Z,44.90
2019-03-31T03:45:26.791Z,42.73
2019-03-31T03:46:13.853Z,45.25
2019-03-31T03:47:00.354Z,48.00
2019-03-31T03:47:46.826Z,49.20
2019-03-31T03:48:33.753Z,50.33
2019-03-31T03:49:20.317Z,50.90
2019-03-31T03:50:07.291Z,45.55
2019-03-31T03:50:54.070Z,51.50
2019-03-31T03:51:40.609Z,46.45
2019-03-31T03:52:27.512Z,51.45
2019-03-31T03:53:14.380Z,51.92
2019-03-31T03:54:00.861Z,48.78
2019-03-31T03:54:47.294Z,53.05
2019-03-31T03:55:33.635Z,52.73
2019-03-31T03:56:20.002Z,51.35
2019-03-31T03:57:06.348Z,54.38
2019-03-31T03:57:52.735Z,56.88
2019-03-31T03:58:39.135Z,52.78
2019-03-31T03:59:25.576Z,52.43
2019-03-31T04:00:12.152Z,49.42
2019-03-31T04:00:58.660Z,56.02
2019-03-31T04:01:45.583Z,55.30
2019-03-31T04:02:31.949Z,52.55
2019-03-31T04:03:30.175Z,52.75
2019-03-31T04:04:07.173Z,61.95
2019-03-31T04:04:54.000Z,53.83
2019-03-31T04:05:40.990Z,58.55
2019-03-31T04:06:27.434Z,50.50
2019-03-31T04:07:14.379Z,52.08
2019-03-31T04:08:00.692Z,55.90
2019-03-31T04:08:47.159Z,54.20
2019-03-31T04:09:33.695Z,59.93
2019-03-31T04:11:13.718Z,58.50
2019-03-31T04:12:00.402Z,52.35
2019-03-31T04:12:47.368Z,55.95
2019-03-31T04:13:34.418Z,61.40
2019-03-31T04:14:20.919Z,64.20
2019-03-31T04:15:07.913Z,55.65
2019-03-31T04:15:54.868Z,64.67
2019-03-31T04:16:41.443Z,62.23
2019-03-31T04:17:28.357Z,62.05
2019-03-31T04:18:15.371Z,62.25
2019-03-31T04:19:02.503Z,69.87
2019-03-31T04:19:49.437Z,62.13
2019-03-31T04:20:39.293Z,69.27
2019-03-31T04:21:25.890Z,68.07
2019-03-31T04:22:12.707Z,61.90
2019-03-31T04:22:59.404Z,65.47
2019-03-31T04:23:46.617Z,63.80
2019-03-31T04:24:33.952Z,72.53
2019-03-31T04:25:21.040Z,71.10
2019-03-31T04:26:07.754Z,74.97
2019-03-31T04:26:54.918Z,75.22
2019-03-31T04:27:42.000Z,74.37
2019-03-31T04:28:28.621Z,79.53
2019-03-31T04:29:15.792Z,73.22
2019-03-31T04:30:02.368Z,80.20
2019-03-31T04:30:49.427Z,79.00
2019-03-31T04:31:36.087Z,74.03
2019-03-31T04:32:23.083Z,77.50
2019-03-31T04:33:09.633Z,79.87
2019-03-31T04:33:56.195Z,76.82
2019-03-31T04:34:43.468Z,73.00
2019-03-31T04:35:30.008Z,76.53
2019-03-31T04:36:16.648Z,81.70
2019-03-31T04:37:03.810Z,82.10
2019-03-31T04:37:50.984Z,75.20
2019-03-31T04:38:37.604Z,85.95
2019-03-31T04:39:24.285Z,85.75
2019-03-31T04:40:11.203Z,87.20
2019-03-31T04:40:58.029Z,85.17
2019-03-31T04:41:44.645Z,87.25
2019-03-31T04:42:31.264Z,87.27
2019-03-31T04:43:17.876Z,81.55
2019-03-31T04:44:04.491Z,89.07
2019-03-31T04:44:51.088Z,88.58
2019-03-31T04:45:37.719Z,84.80
2019-03-31T04:46:24.849Z,93.30
2019-03-31T04:47:12.010Z,91.60
2019-03-31T04:47:59.249Z,91.80
2019-03-31T04:48:46.408Z,91.87
2019-03-31T04:49:33.585Z,92.75
2019-03-31T04:50:20.270Z,92.70
2019-03-31T04:51:07.582Z,88.70
2019-03-31T04:51:54.182Z,91.70
2019-03-31T04:52:41.347Z,94.77
2019-03-31T04:53:27.899Z,95.12
2019-03-31T04:54:14.429Z,92.78
2019-03-31T04:55:01.055Z,89.20
2019-03-31T04:55:48.272Z,87.02
2019-03-31T04:56:34.891Z,87.97
2019-03-31T04:57:21.485Z,97.15
2019-03-31T04:58:08.083Z,92.57
2019-03-31T04:58:54.812Z,89.17
2019-03-31T04:59:41.643Z,90.00
2019-03-31T05:00:28.610Z,99.72
2019-03-31T05:01:15.252Z,94.25
2019-03-31T05:02:01.834Z,90.10
2019-03-31T05:02:51.569Z,89.50
2019-03-31T05:03:38.208Z,90.17
2019-03-31T05:04:24.773Z,94.20
2019-03-31T05:05:11.232Z,91.55
2019-03-31T05:05:57.768Z,90.62
2019-03-31T05:06:44.482Z,99.32
2019-03-31T05:07:31.300Z,93.72
2019-03-31T05:08:18.208Z,91.22
2019-03-31T05:09:05.641Z,92.50
2019-03-31T05:09:52.417Z,95.47
2019-03-31T05:10:39.412Z,97.57
2019-03-31T05:11:25.903Z,98.50
2019-03-31T05:12:12.530Z,85.40
2019-03-31T05:12:59.747Z,90.40
2019-03-31T05:13:46.411Z,94.37
2019-03-31T05:14:32.971Z,93.85
2019-03-31T05:15:20.068Z,89.65
2019-03-31T05:16:06.644Z,91.97
2019-03-31T05:16:53.284Z,97.10
2019-03-31T05:17:40.184Z,95.30
2019-03-31T05:18:27.155Z,97.00
2019-03-31T05:19:13.758Z,94.25
2019-03-31T05:20:00.501Z,91.37
2019-03-31T05:20:47.516Z,91.05
2019-03-31T05:21:34.202Z,91.78
2019-03-31T05:22:20.814Z,92.97
2019-03-31T05:23:07.505Z,97.25
2019-03-31T05:23:54.257Z,89.77
2019-03-31T05:24:41.843Z,94.67
2019-03-31T05:25:28.534Z,91.57
2019-03-31T05:26:15.706Z,92.15
2019-03-31T05:27:02.423Z,93.50
2019-03-31T05:27:49.407Z,100.45
2019-03-31T05:28:36.115Z,98.72
2019-03-31T05:29:22.709Z,90.28
2019-03-31T05:30:09.572Z,93.20
2019-03-31T05:30:56.441Z,98.75
2019-03-31T05:31:43.047Z,99.03
2019-03-31T05:32:29.772Z,95.20
2019-03-31T05:33:16.822Z,91.75
2019-03-31T05:34:18.094Z,96.32
2019-03-31T05:34:52.195Z,92.70
2019-03-31T05:35:38.772Z,85.50
2019-03-31T05:36:25.347Z,95.85
2019-03-31T05:37:12.091Z,99.67
2019-03-31T05:37:59.330Z,95.92
2019-03-31T05:38:46.460Z,89.77
2019-03-31T05:39:33.128Z,96.90
2019-03-31T05:40:20.253Z,97.33
2019-03-31T05:41:06.848Z,89.92
2019-03-31T05:41:53.366Z,89.97
2019-03-31T05:42:40.025Z,95.07
2019-03-31T05:43:26.687Z,97.35
2019-03-31T05:44:13.339Z,92.35
2019-03-31T05:44:59.936Z,93.30
2019-03-31T05:45:47.679Z,94.30
2019-03-31T05:46:34.697Z,93.42
2019-03-31T05:47:21.448Z,96.30
2019-03-31T05:48:08.020Z,88.78
2019-03-31T05:48:55.285Z,89.95
2019-03-31T05:49:42.739Z,89.72
2019-03-31T05:50:29.791Z,100.55
2019-03-31T05:51:17.022Z,92.85
2019-03-31T05:52:04.054Z,84.13
2019-03-31T05:52:50.615Z,92.45
2019-03-31T05:53:37.274Z,94.67
2019-03-31T05:54:23.959Z,94.97
2019-03-31T05:55:12.067Z,92.65
2019-03-31T05:55:58.947Z,95.55
2019-03-31T05:56:45.566Z,87.92
2019-03-31T05:57:32.134Z,90.25
2019-03-31T05:58:19.269Z,96.90
2019-03-31T05:59:05.907Z,97.00
2019-03-31T05:59:52.869Z,93.50
2019-03-31T06:00:44.781Z,86.10
2019-03-31T06:01:31.770Z,91.53
2019-03-31T06:02:18.710Z,88.95
2019-03-31T06:03:05.136Z,97.78
2019-03-31T06:03:51.637Z,94.70
2019-03-31T06:04:38.031Z,100.92
2019-03-31T06:05:24.504Z,94.85
2019-03-31T06:06:12.374Z,94.80
2019-03-31T06:06:59.318Z,94.42
2019-03-31T06:07:45.727Z,91.70
2019-03-31T06:08:35.131Z,94.13
2019-03-31T06:09:21.591Z,92.42
2019-03-31T06:10:08.038Z,93.72
2019-03-31T06:10:54.559Z,88.62
2019-03-31T06:11:41.044Z,99.50
2019-03-31T06:12:27.450Z,90.90
2019-03-31T06:13:13.937Z,95.17
2019-03-31T06:14:01.025Z,93.15
2019-03-31T06:14:47.563Z,90.45
2019-03-31T06:15:34.496Z,91.30
2019-03-31T06:16:20.944Z,91.40
2019-03-31T06:17:07.909Z,93.07
2019-03-31T06:17:54.282Z,90.47
2019-03-31T06:18:40.708Z,87.22
2019-03-31T06:19:27.209Z,91.85
2019-03-31T06:20:13.681Z,86.97
2019-03-31T06:21:00.227Z,90.92
2019-03-31T06:21:46.733Z,90.83
2019-03-31T06:22:33.247Z,93.15
2019-03-31T06:23:19.807Z,92.62
2019-03-31T06:24:06.344Z,94.85
2019-03-31T06:24:53.399Z,92.42
2019-03-31T06:25:39.943Z,92.72
2019-03-31T06:26:26.412Z,86.67
2019-03-31T06:27:15.711Z,87.22
2019-03-31T06:28:01.511Z,89.30
2019-03-31T06:28:47.899Z,90.45
2019-03-31T06:29:34.502Z,92.50
2019-03-31T06:30:21.101Z,93.10
2019-03-31T06:31:07.711Z,91.70
2019-03-31T06:31:54.278Z,89.97
2019-03-31T06:32:40.794Z,86.82
2019-03-31T06:33:27.403Z,88.78
2019-03-31T06:34:14.534Z,93.42
2019-03-31T06:35:01.285Z,90.72
2019-03-31T06:35:47.835Z,87.60
2019-03-31T06:36:34.552Z,87.02
2019-03-31T06:37:21.151Z,87.57
2019-03-31T06:38:07.865Z,83.17
2019-03-31T06:38:54.631Z,82.67
2019-03-31T06:39:41.315Z,88.10
2019-03-31T06:40:28.384Z,89.97
2019-03-31T06:41:15.633Z,85.07
2019-03-31T06:42:02.390Z,92.50
2019-03-31T06:42:49.007Z,84.95
2019-03-31T06:43:36.327Z,87.22
2019-03-31T06:44:23.174Z,84.55
2019-03-31T06:45:10.042Z,84.58
2019-03-31T06:45:56.926Z,83.78
2019-03-31T06:46:43.611Z,88.20
2019-03-31T06:47:30.360Z,84.62
2019-03-31T06:48:17.551Z,86.45
2019-03-31T06:49:04.769Z,83.82
2019-03-31T06:49:51.446Z,82.53
2019-03-31T06:50:38.142Z,86.63
2019-03-31T06:51:24.820Z,81.20
2019-03-31T06:52:12.197Z,86.10
2019-03-31T06:52:59.118Z,86.32
2019-03-31T06:53:46.375Z,84.17
2019-03-31T06:54:32.981Z,83.25
2019-03-31T06:55:19.673Z,83.22
2019-03-31T06:56:06.314Z,76.10
2019-03-31T06:56:53.587Z,81.20
2019-03-31T06:57:41.224Z,80.53
2019-03-31T06:58:28.044Z,78.25
2019-03-31T06:59:14.717Z,77.58
2019-03-31T07:00:01.411Z,79.77
2019-03-31T07:00:48.604Z,76.62
2019-03-31T07:01:35.618Z,75.08
2019-03-31T07:02:22.241Z,76.57
2019-03-31T07:03:08.876Z,78.47
2019-03-31T07:03:55.563Z,83.85
2019-03-31T07:04:42.157Z,76.15
2019-03-31T07:05:28.852Z,77.80
2019-03-31T07:06:16.031Z,75.87
2019-03-31T07:07:02.687Z,80.55
2019-03-31T07:07:49.451Z,79.00
2019-03-31T07:08:36.767Z,69.75
2019-03-31T07:09:23.838Z,73.90
2019-03-31T07:10:10.426Z,71.82
2019-03-31T07:10:57.122Z,69.72
2019-03-31T07:11:43.891Z,67.97
2019-03-31T07:12:31.195Z,68.25
2019-03-31T07:13:18.269Z,73.15
2019-03-31T07:14:05.668Z,68.05
2019-03-31T07:14:52.459Z,65.78
2019-03-31T07:15:39.131Z,65.17
2019-03-31T07:16:25.734Z,67.85
2019-03-31T07:17:12.811Z,68.67
2019-03-31T07:17:59.475Z,70.17
2019-03-31T07:18:46.136Z,63.58
2019-03-31T07:19:32.835Z,65.15
2019-03-31T07:20:20.454Z,67.07
2019-03-31T07:21:07.175Z,66.97
2019-03-31T07:21:53.713Z,63.73
2019-03-31T07:22:40.334Z,63.55
2019-03-31T07:23:26.965Z,65.30
2019-03-31T07:24:14.130Z,63.83
2019-03-31T07:25:00.808Z,64.07
2019-03-31T07:25:47.948Z,62.15
2019-03-31T07:26:34.640Z,57.47
2019-03-31T07:27:21.271Z,64.60
2019-03-31T07:28:07.926Z,60.80
2019-03-31T07:28:54.654Z,60.55
2019-03-31T07:29:41.251Z,60.23
2019-03-31T07:30:27.925Z,58.58
2019-03-31T07:31:15.011Z,58.33
2019-03-31T07:32:01.616Z,61.37
2019-03-31T07:32:48.770Z,57.17
2019-03-31T07:33:35.483Z,57.23
2019-03-31T07:34:22.011Z,58.13
2019-03-31T07:35:18.180Z,57.75
2019-03-31T07:35:58.131Z,54.37
2019-03-31T07:36:44.722Z,55.63
2019-03-31T07:37:31.315Z,56.40
2019-03-31T07:38:18.646Z,59.23
2019-03-31T07:39:06.643Z,53.90
2019-03-31T07:39:53.322Z,52.15
2019-03-31T07:40:40.527Z,54.63
2019-03-31T07:41:27.570Z,58.90
2019-03-31T07:42:14.540Z,58.00
2019-03-31T07:43:01.561Z,56.55
2019-03-31T07:43:49.519Z,59.77
2019-03-31T07:44:36.329Z,63.80
2019-03-31T07:45:23.794Z,59.27
2019-03-31T07:46:10.360Z,58.13
2019-03-31T07:46:57.339Z,56.88
2019-03-31T07:47:44.033Z,53.15
2019-03-31T07:48:30.760Z,58.80
2019-03-31T07:49:17.267Z,55.37
2019-03-31T07:50:04.746Z,53.63
2019-03-31T07:50:51.412Z,53.27
2019-03-31T07:51:37.858Z,53.05
2019-03-31T07:52:24.782Z,57.03
2019-03-31T07:53:11.297Z,50.70
2019-03-31T07:53:57.806Z,54.45
2019-03-31T07:54:44.223Z,53.00
2019-03-31T07:55:30.825Z,54.00
2019-03-31T07:56:17.895Z,56.28
2019-03-31T07:57:06.974Z,58.97
2019-03-31T07:57:54.565Z,50.52
2019-03-31T07:58:41.811Z,52.70
2019-03-31T07:59:28.770Z,52.67
2019-03-31T08:00:17.410Z,55.03
2019-03-31T08:01:04.187Z,54.50
2019-03-31T08:01:50.670Z,56.00
2019-03-31T08:02:37.231Z,55.00
2019-03-31T08:03:24.358Z,50.78
2019-03-31T08:04:11.263Z,56.30
2019-03-31T08:04:57.714Z,53.73
2019-03-31T08:05:44.247Z,58.05
2019-03-31T08:06:31.162Z,53.95
2019-03-31T08:07:18.170Z,53.60
2019-03-31T08:08:04.658Z,53.63
2019-03-31T08:08:53.385Z,56.73
2019-03-31T08:09:39.525Z,57.20
2019-03-31T08:10:25.953Z,51.13
2019-03-31T08:11:17.046Z,54.75
2019-03-31T08:12:04.342Z,53.13
2019-03-31T08:12:50.839Z,57.00
2019-03-31T08:13:37.376Z,53.05
2019-03-31T08:14:24.234Z,54.30
2019-03-31T08:15:11.098Z,56.75
2019-03-31T08:15:57.536Z,58.68
2019-03-31T08:16:43.952Z,55.50
2019-03-31T08:17:30.464Z,54.18
2019-03-31T08:18:17.364Z,55.50
2019-03-31T08:19:03.851Z,58.47
2019-03-31T08:19:50.964Z,56.08
2019-03-31T08:20:37.824Z,52.85
2019-03-31T08:21:24.287Z,55.52
2019-03-31T08:22:11.289Z,58.78
2019-03-31T08:22:58.235Z,55.60
2019-03-31T08:23:45.252Z,48.20
2019-03-31T08:24:42.280Z,55.70
2019-03-31T08:25:28.979Z,56.88
2019-03-31T08:26:15.574Z,57.60
2019-03-31T08:27:05.503Z,59.60
2019-03-31T08:27:51.020Z,54.50
2019-03-31T08:28:37.451Z,53.73
2019-03-31T08:29:23.968Z,55.28
2019-03-31T08:30:12.118Z,58.25
2019-03-31T08:30:58.871Z,59.75
2019-03-31T08:31:45.429Z,54.90
2019-03-31T08:32:32.388Z,56.60
2019-03-31T08:33:19.312Z,55.67
2019-03-31T08:34:05.711Z,56.85
2019-03-31T08:34:52.111Z,56.48
2019-03-31T08:35:47.214Z,59.85
2019-03-31T08:36:26.864Z,53.73
2019-03-31T08:37:13.503Z,56.20
2019-03-31T08:37:59.908Z,54.10
2019-03-31T08:38:46.451Z,55.67
2019-03-31T08:39:33.052Z,56.60
2019-03-31T08:40:19.417Z,56.53
2019-03-31T08:41:05.766Z,54.65
2019-03-31T08:41:52.665Z,54.30
2019-03-31T08:42:47.574Z,57.75
2019-03-31T08:43:37.107Z,58.30
2019-03-31T08:44:25.827Z,57.48
2019-03-31T08:45:14.260Z,54.25
2019-03-31T08:46:01.893Z,57.25
2019-03-31T08:46:48.885Z,56.65
2019-03-31T08:47:36.162Z,57.58
2019-03-31T08:48:25.166Z,51.50
2019-03-31T08:49:33.057Z,51.08
2019-03-31T08:50:22.639Z,55.38
2019-03-31T08:51:09.933Z,57.50
2019-03-31T08:51:56.934Z,55.88
2019-03-31T08:52:46.736Z,57.73
2019-03-31T08:53:37.805Z,58.50
2019-03-31T08:54:25.574Z,59.90
2019-03-31T08:55:12.712Z,56.53
2019-03-31T08:55:59.610Z,54.18
2019-03-31T08:56:46.262Z,54.15
2019-03-31T08:57:33.436Z,57.38
2019-03-31T08:58:20.290Z,54.30
2019-03-31T08:59:07.048Z,53.52
2019-03-31T08:59:54.044Z,55.28
2019-03-31T09:00:50.225Z,53.02
2019-03-31T09:01:37.120Z,57.60
2019-03-31T09:02:33.005Z,52.05
2019-03-31T09:03:19.653Z,52.08
2019-03-31T09:04:06.660Z,58.15
2019-03-31T09:04:53.680Z,59.65
2019-03-31T09:05:40.596Z,54.33
2019-03-31T09:06:27.613Z,55.78
2019-03-31T09:07:14.600Z,55.20
2019-03-31T09:08:01.460Z,57.88
2019-03-31T09:08:48.560Z,58.38
2019-03-31T09:09:35.114Z,56.08
2019-03-31T09:10:22.095Z,56.65
2019-03-31T09:11:09.027Z,61.40
2019-03-31T09:11:55.462Z,57.23
2019-03-31T09:12:42.291Z,52.58
2019-03-31T09:13:29.291Z,54.93
2019-03-31T09:14:16.202Z,56.00
2019-03-31T09:15:02.776Z,55.67
2019-03-31T09:15:49.935Z,56.80
2019-03-31T09:16:36.926Z,57.00
2019-03-31T09:17:23.905Z,53.28
2019-03-31T09:18:10.845Z,57.75
2019-03-31T09:18:57.757Z,58.02
2019-03-31T09:19:50.128Z,56.80
2019-03-31T09:20:36.851Z,58.78
2019-03-31T09:21:23.510Z,59.18
2019-03-31T09:22:10.185Z,58.13
2019-03-31T09:22:57.284Z,54.55
2019-03-31T09:23:43.860Z,58.20
2019-03-31T09:24:30.463Z,58.83
2019-03-31T09:25:17.629Z,57.62
2019-03-31T09:26:04.940Z,54.55
2019-03-31T09:26:51.547Z,51.80
2019-03-31T09:27:38.160Z,51.05
2019-03-31T09:28:24.786Z,56.37
2019-03-31T09:29:11.899Z,56.63
2019-03-31T09:29:58.990Z,54.15
2019-03-31T09:30:45.944Z,54.55
2019-03-31T09:31:32.453Z,64.27
2019-03-31T09:32:19.041Z,51.05
2019-03-31T09:33:05.667Z,55.25
2019-03-31T09:33:52.260Z,56.35
2019-03-31T09:34:38.816Z,58.65
2019-03-31T09:35:25.267Z,54.25
2019-03-31T09:36:16.520Z,52.58
2019-03-31T09:37:00.587Z,58.52
2019-03-31T09:37:47.809Z,54.53
2019-03-31T09:38:34.727Z,53.92
2019-03-31T09:39:21.381Z,61.02
2019-03-31T09:40:09.153Z,53.10
2019-03-31T09:40:56.598Z,50.92
2019-03-31T09:41:43.676Z,55.95
2019-03-31T09:42:31.180Z,50.25
2019-03-31T09:43:18.403Z,57.45
2019-03-31T09:44:05.174Z,54.70
2019-03-31T09:44:52.100Z,52.53
2019-03-31T09:45:38.753Z,55.03
2019-03-31T09:46:25.879Z,54.33
2019-03-31T09:47:12.517Z,49.42
2019-03-31T09:47:59.071Z,52.43
2019-03-31T09:48:47.862Z,52.35
2019-03-31T09:49:34.563Z,54.40
2019-03-31T09:50:21.146Z,51.50
2019-03-31T09:51:08.383Z,48.78
2019-03-31T09:51:54.884Z,53.92
2019-03-31T09:52:41.996Z,51.30
2019-03-31T09:53:29.095Z,48.60
2019-03-31T09:54:16.037Z,51.48
2019-03-31T09:55:02.678Z,49.23
2019-03-31T09:55:49.719Z,50.15
2019-03-31T09:56:36.630Z,49.53
2019-03-31T09:57:23.581Z,45.67
2019-03-31T09:58:10.068Z,43.25
2019-03-31T09:58:56.748Z,47.70
2019-03-31T09:59:43.206Z,43.38
2019-03-31T10:00:45.590Z,51.25
2019-03-31T10:01:32.222Z,46.45
2019-03-31T10:02:19.657Z,47.67
2019-03-31T10:03:06.196Z,48.02
2019-03-31T10:03:52.886Z,46.75
2019-03-31T10:04:39.859Z,42.23
2019-03-31T10:05:26.466Z,45.10
2019-03-31T10:06:13.132Z,44.95
2019-03-31T10:07:01.585Z,45.60
2019-03-31T10:07:48.426Z,43.02
2019-03-31T10:08:34.891Z,45.92
2019-03-31T10:09:21.566Z,41.45